ACA432 CYYZ-CYUL
Flight info
| Callsign | ACA432 |
|---|---|
| Flight time | 0h 54m |
| Altitude | 35000 |
| Route | DEDKI5 MIGLO HABBS7 |
| Aircraft | A321/M-SDE3FGHIRWY/LB1 |
Departure
| Time | 2026-05-08 03:09 |
|---|---|
| Airport | Toronto Pearson International Airport (CYYZ) |
Arrival
| Time | 2026-05-08 04:04 |
|---|---|
| Airport | Montreal / Pierre Elliott Trudeau International Airport (CYUL) |
| Time | Latitude | Longitude | Altitude | Speed | Heading |
|---|---|---|---|---|---|
| 2026-05-08 02:35 | 43.68024 | -79.61709 | 571 ft | 0 kts | 136° |
| 2026-05-08 02:59 | 43.68035 | -79.61723 | 570 ft | 4 kts | 136° |
| 2026-05-08 03:00 | 43.68054 | -79.61748 | 561 ft | 3 kts | 136° |
| 2026-05-08 03:00 | 43.68071 | -79.61768 | 571 ft | 4 kts | 160° |
| 2026-05-08 03:00 | 43.68094 | -79.61769 | 568 ft | 4 kts | 209° |
| 2026-05-08 03:00 | 43.68112 | -79.61751 | 570 ft | 0 kts | 226° |
| 2026-05-08 03:01 | 43.68112 | -79.61750 | 570 ft | 0 kts | 226° |
| 2026-05-08 03:03 | 43.68111 | -79.61751 | 570 ft | 1 kts | 226° |
| 2026-05-08 03:03 | 43.68078 | -79.61798 | 571 ft | 13 kts | 225° |
| 2026-05-08 03:04 | 43.68007 | -79.61907 | 571 ft | 15 kts | 237° |
| 2026-05-08 03:04 | 43.67964 | -79.62037 | 569 ft | 14 kts | 244° |
| 2026-05-08 03:04 | 43.68007 | -79.62146 | 566 ft | 16 kts | 317° |
| 2026-05-08 03:04 | 43.68110 | -79.62280 | 562 ft | 21 kts | 316° |
| 2026-05-08 03:05 | 43.68216 | -79.62416 | 562 ft | 20 kts | 318° |
| 2026-05-08 03:05 | 43.68320 | -79.62542 | 565 ft | 19 kts | 316° |
| 2026-05-08 03:05 | 43.68416 | -79.62666 | 563 ft | 19 kts | 316° |
| 2026-05-08 03:05 | 43.68508 | -79.62787 | 562 ft | 18 kts | 316° |
| 2026-05-08 03:06 | 43.68597 | -79.62904 | 566 ft | 18 kts | 316° |
| 2026-05-08 03:06 | 43.68707 | -79.63048 | 563 ft | 22 kts | 316° |
| 2026-05-08 03:06 | 43.68818 | -79.63191 | 570 ft | 21 kts | 315° |
| 2026-05-08 03:06 | 43.68923 | -79.63327 | 570 ft | 20 kts | 317° |
| 2026-05-08 03:07 | 43.69018 | -79.63451 | 568 ft | 18 kts | 316° |
| 2026-05-08 03:07 | 43.69118 | -79.63519 | 572 ft | 16 kts | 19° |
| 2026-05-08 03:07 | 43.69199 | -79.63431 | 569 ft | 14 kts | 25° |
| 2026-05-08 03:07 | 43.69297 | -79.63420 | 565 ft | 15 kts | 2° |
| 2026-05-08 03:08 | 43.69389 | -79.63464 | 564 ft | 15 kts | 314° |
| 2026-05-08 03:08 | 43.69372 | -79.63568 | 567 ft | 1 kts | 228° |
| 2026-05-08 03:08 | 43.69230 | -79.63780 | 566 ft | 67 kts | 225° |
| 2026-05-08 03:09 | 43.68761 | -79.64456 | 567 ft | 125 kts | 226° |
| 2026-05-08 03:09 | 43.68057 | -79.65479 | 650 ft | 161 kts | 227° |
| 2026-05-08 03:09 | 43.67285 | -79.66669 | 1080 ft | 172 kts | 229° |
| 2026-05-08 03:09 | 43.66493 | -79.67956 | 1649 ft | 179 kts | 231° |
| 2026-05-08 03:10 | 43.65673 | -79.69261 | 2231 ft | 180 kts | 230° |
| 2026-05-08 03:10 | 43.64760 | -79.70405 | 2892 ft | 175 kts | 214° |
| 2026-05-08 03:10 | 43.63628 | -79.70829 | 3610 ft | 172 kts | 178° |
| 2026-05-08 03:10 | 43.62482 | -79.70238 | 4064 ft | 183 kts | 152° |
| 2026-05-08 03:11 | 43.61439 | -79.69169 | 4504 ft | 192 kts | 142° |
| 2026-05-08 03:11 | 43.60396 | -79.67927 | 4876 ft | 204 kts | 142° |
| 2026-05-08 03:11 | 43.59270 | -79.66588 | 5188 ft | 225 kts | 142° |
| 2026-05-08 03:11 | 43.58048 | -79.65089 | 5593 ft | 244 kts | 140° |
| 2026-05-08 03:12 | 43.56754 | -79.63469 | 6155 ft | 258 kts | 142° |
| 2026-05-08 03:12 | 43.55362 | -79.61783 | 6498 ft | 280 kts | 136° |
| 2026-05-08 03:12 | 43.54405 | -79.59421 | 6488 ft | 290 kts | 103° |
| 2026-05-08 03:12 | 43.54176 | -79.56655 | 6485 ft | 292 kts | 94° |
| 2026-05-08 03:13 | 43.54014 | -79.53864 | 6483 ft | 292 kts | 94° |
| 2026-05-08 03:13 | 43.53842 | -79.51053 | 7050 ft | 295 kts | 94° |
| 2026-05-08 03:13 | 43.53663 | -79.48226 | 7914 ft | 298 kts | 95° |
| 2026-05-08 03:13 | 43.53478 | -79.45362 | 8735 ft | 302 kts | 94° |
| 2026-05-08 03:14 | 43.53535 | -79.42455 | 9536 ft | 306 kts | 81° |
| 2026-05-08 03:14 | 43.54023 | -79.39590 | 10262 ft | 312 kts | 71° |
| 2026-05-08 03:14 | 43.54694 | -79.36626 | 10478 ft | 335 kts | 71° |
| 2026-05-08 03:14 | 43.55414 | -79.33460 | 10729 ft | 356 kts | 71° |
| 2026-05-08 03:15 | 43.56159 | -79.30161 | 11330 ft | 363 kts | 71° |
| 2026-05-08 03:15 | 43.56912 | -79.26815 | 12048 ft | 368 kts | 71° |
| 2026-05-08 03:15 | 43.57673 | -79.23427 | 12774 ft | 372 kts | 71° |
| 2026-05-08 03:15 | 43.58439 | -79.20000 | 13493 ft | 376 kts | 71° |
| 2026-05-08 03:16 | 43.59209 | -79.16530 | 14166 ft | 380 kts | 71° |
| 2026-05-08 03:16 | 43.59974 | -79.13070 | 14819 ft | 384 kts | 71° |
| 2026-05-08 03:16 | 43.60757 | -79.09537 | 15482 ft | 387 kts | 71° |
| 2026-05-08 03:16 | 43.61554 | -79.05930 | 16158 ft | 390 kts | 71° |
| 2026-05-08 03:17 | 43.62336 | -79.02385 | 16814 ft | 393 kts | 71° |
| 2026-05-08 03:17 | 43.63146 | -78.98721 | 17485 ft | 395 kts | 71° |
| 2026-05-08 03:17 | 43.63940 | -78.95125 | 18127 ft | 398 kts | 71° |
| 2026-05-08 03:17 | 43.64748 | -78.91451 | 18700 ft | 401 kts | 71° |
| 2026-05-08 03:18 | 43.65558 | -78.87748 | 19250 ft | 404 kts | 71° |
| 2026-05-08 03:18 | 43.66373 | -78.84017 | 19796 ft | 407 kts | 71° |
| 2026-05-08 03:18 | 43.67192 | -78.80268 | 20333 ft | 410 kts | 71° |
| 2026-05-08 03:18 | 43.68018 | -78.76489 | 20885 ft | 412 kts | 71° |
| 2026-05-08 03:19 | 43.68851 | -78.72695 | 21433 ft | 414 kts | 70° |
| 2026-05-08 03:19 | 43.69908 | -78.68988 | 21943 ft | 415 kts | 64° |
| 2026-05-08 03:19 | 43.71046 | -78.65305 | 22474 ft | 418 kts | 64° |
| 2026-05-08 03:19 | 43.72189 | -78.61598 | 22985 ft | 421 kts | 64° |
| 2026-05-08 03:20 | 43.73341 | -78.57859 | 23491 ft | 423 kts | 64° |
| 2026-05-08 03:20 | 43.74498 | -78.54100 | 23896 ft | 427 kts | 64° |
| 2026-05-08 03:20 | 43.75665 | -78.50310 | 24260 ft | 430 kts | 64° |
| 2026-05-08 03:20 | 43.76840 | -78.46483 | 24619 ft | 434 kts | 64° |
| 2026-05-08 03:21 | 43.78023 | -78.42616 | 24970 ft | 438 kts | 64° |
| 2026-05-08 03:21 | 43.79212 | -78.38712 | 25308 ft | 442 kts | 65° |
| 2026-05-08 03:21 | 43.80409 | -78.34776 | 25655 ft | 446 kts | 65° |
| 2026-05-08 03:21 | 43.81615 | -78.30802 | 25992 ft | 449 kts | 65° |
| 2026-05-08 03:22 | 43.82418 | -78.28153 | 26238 ft | 452 kts | 65° |
| 2026-05-08 03:22 | 43.83638 | -78.24133 | 26625 ft | 454 kts | 65° |
| 2026-05-08 03:22 | 43.85265 | -78.18773 | 27083 ft | 458 kts | 65° |
| 2026-05-08 03:22 | 43.86506 | -78.14687 | 27408 ft | 461 kts | 65° |
| 2026-05-08 03:23 | 43.87751 | -78.10573 | 27730 ft | 465 kts | 65° |
| 2026-05-08 03:23 | 43.89000 | -78.06421 | 28046 ft | 468 kts | 65° |
| 2026-05-08 03:23 | 43.90256 | -78.02247 | 28354 ft | 471 kts | 65° |
| 2026-05-08 03:23 | 43.91522 | -77.98037 | 28653 ft | 474 kts | 65° |
| 2026-05-08 03:24 | 43.92381 | -77.95179 | 28843 ft | 476 kts | 65° |
| 2026-05-08 03:24 | 43.93660 | -77.90924 | 29093 ft | 480 kts | 65° |
| 2026-05-08 03:24 | 43.94946 | -77.86632 | 29377 ft | 483 kts | 65° |
| 2026-05-08 03:24 | 43.96236 | -77.82310 | 29656 ft | 486 kts | 65° |
| 2026-05-08 03:25 | 43.97530 | -77.77963 | 29985 ft | 488 kts | 65° |
| 2026-05-08 03:25 | 43.98823 | -77.73602 | 30231 ft | 490 kts | 65° |
| 2026-05-08 03:25 | 44.00104 | -77.69272 | 30529 ft | 491 kts | 65° |
| 2026-05-08 03:25 | 44.01423 | -77.64830 | 30839 ft | 492 kts | 65° |
| 2026-05-08 03:26 | 44.02715 | -77.60490 | 31128 ft | 493 kts | 65° |
| 2026-05-08 03:26 | 44.04021 | -77.56086 | 31388 ft | 495 kts | 65° |
| 2026-05-08 03:26 | 44.05329 | -77.51650 | 31648 ft | 496 kts | 66° |
| 2026-05-08 03:26 | 44.06634 | -77.47203 | 31936 ft | 498 kts | 66° |
| 2026-05-08 03:27 | 44.08070 | -77.42832 | 32220 ft | 497 kts | 58° |
| 2026-05-08 03:27 | 44.09878 | -77.38746 | 32498 ft | 496 kts | 54° |
| 2026-05-08 03:27 | 44.11759 | -77.34724 | 32772 ft | 497 kts | 54° |
| 2026-05-08 03:27 | 44.13646 | -77.30679 | 33058 ft | 498 kts | 54° |
| 2026-05-08 03:28 | 44.15528 | -77.26626 | 33352 ft | 499 kts | 54° |
| 2026-05-08 03:28 | 44.17413 | -77.22561 | 33633 ft | 500 kts | 54° |
| 2026-05-08 03:28 | 44.19301 | -77.18484 | 33826 ft | 502 kts | 54° |
| 2026-05-08 03:28 | 44.21193 | -77.14379 | 34043 ft | 504 kts | 54° |
| 2026-05-08 03:29 | 44.23086 | -77.10261 | 34278 ft | 504 kts | 54° |
| 2026-05-08 03:29 | 44.24977 | -77.06142 | 34526 ft | 505 kts | 54° |
| 2026-05-08 03:29 | 44.26871 | -77.02018 | 34804 ft | 504 kts | 54° |
| 2026-05-08 03:29 | 44.28763 | -76.97904 | 34908 ft | 503 kts | 54° |
| 2026-05-08 03:30 | 44.32665 | -76.89419 | 34931 ft | 497 kts | 54° |
| 2026-05-08 03:31 | 44.40094 | -76.73145 | 34928 ft | 497 kts | 55° |
| 2026-05-08 03:32 | 44.45653 | -76.60903 | 34927 ft | 496 kts | 55° |
| 2026-05-08 03:32 | 44.49348 | -76.52741 | 34926 ft | 496 kts | 55° |
| 2026-05-08 03:33 | 44.53034 | -76.44566 | 34920 ft | 496 kts | 55° |
| 2026-05-08 03:33 | 44.56715 | -76.36390 | 34934 ft | 496 kts | 55° |
| 2026-05-08 03:34 | 44.60391 | -76.28200 | 34907 ft | 496 kts | 56° |
| 2026-05-08 03:34 | 44.63914 | -76.19892 | 34901 ft | 497 kts | 64° |
| 2026-05-08 03:35 | 44.66731 | -76.10424 | 34892 ft | 498 kts | 66° |
| 2026-05-08 03:35 | 44.69281 | -76.01733 | 34890 ft | 498 kts | 66° |
| 2026-05-08 03:36 | 44.71882 | -75.92704 | 34904 ft | 498 kts | 68° |
| 2026-05-08 03:36 | 44.74308 | -75.83570 | 34879 ft | 498 kts | 69° |
| 2026-05-08 03:36 | 44.75477 | -75.79057 | 34590 ft | 499 kts | 69° |
| 2026-05-08 03:37 | 44.76675 | -75.74446 | 33340 ft | 503 kts | 69° |
| 2026-05-08 03:37 | 44.77883 | -75.69837 | 32180 ft | 499 kts | 69° |
| 2026-05-08 03:37 | 44.79063 | -75.65370 | 31873 ft | 474 kts | 69° |
| 2026-05-08 03:37 | 44.80195 | -75.61093 | 31259 ft | 460 kts | 69° |
| 2026-05-08 03:38 | 44.81295 | -75.56940 | 30687 ft | 446 kts | 69° |
| 2026-05-08 03:38 | 44.82372 | -75.52869 | 30127 ft | 442 kts | 69° |
| 2026-05-08 03:38 | 44.83440 | -75.48831 | 29526 ft | 437 kts | 69° |
| 2026-05-08 03:38 | 44.84500 | -75.44848 | 29055 ft | 431 kts | 68° |
| 2026-05-08 03:39 | 44.85583 | -75.40922 | 28547 ft | 428 kts | 68° |
| 2026-05-08 03:39 | 44.86684 | -75.37045 | 28056 ft | 424 kts | 67° |
| 2026-05-08 03:39 | 44.87790 | -75.33208 | 27575 ft | 420 kts | 67° |
| 2026-05-08 03:39 | 44.88887 | -75.29413 | 27095 ft | 417 kts | 67° |
| 2026-05-08 03:40 | 44.89966 | -75.25640 | 26622 ft | 413 kts | 67° |
| 2026-05-08 03:40 | 44.91026 | -75.21893 | 26156 ft | 409 kts | 68° |
| 2026-05-08 03:40 | 44.92070 | -75.18175 | 25703 ft | 406 kts | 68° |
| 2026-05-08 03:40 | 44.93100 | -75.14484 | 25261 ft | 402 kts | 68° |
| 2026-05-08 03:41 | 44.94120 | -75.10828 | 24828 ft | 398 kts | 68° |
| 2026-05-08 03:41 | 44.95128 | -75.07213 | 24398 ft | 394 kts | 67° |
| 2026-05-08 03:41 | 44.96128 | -75.03625 | 23977 ft | 391 kts | 67° |
| 2026-05-08 03:41 | 44.97118 | -75.00073 | 23575 ft | 387 kts | 67° |
| 2026-05-08 03:42 | 44.98101 | -74.96555 | 23146 ft | 383 kts | 66° |
| 2026-05-08 03:42 | 44.99265 | -74.93222 | 22747 ft | 376 kts | 58° |
| 2026-05-08 03:42 | 45.00554 | -74.90019 | 22348 ft | 374 kts | 59° |
| 2026-05-08 03:42 | 45.01813 | -74.86869 | 21971 ft | 372 kts | 59° |
| 2026-05-08 03:43 | 45.03080 | -74.83689 | 21573 ft | 370 kts | 59° |
| 2026-05-08 03:43 | 45.04340 | -74.80523 | 21186 ft | 368 kts | 59° |
| 2026-05-08 03:43 | 45.05590 | -74.77374 | 20796 ft | 366 kts | 59° |
| 2026-05-08 03:43 | 45.06835 | -74.74238 | 20387 ft | 365 kts | 59° |
| 2026-05-08 03:44 | 45.08073 | -74.71118 | 19989 ft | 363 kts | 59° |
| 2026-05-08 03:44 | 45.09300 | -74.68014 | 19581 ft | 361 kts | 59° |
| 2026-05-08 03:44 | 45.10518 | -74.64924 | 19173 ft | 359 kts | 59° |
| 2026-05-08 03:44 | 45.11733 | -74.61846 | 18773 ft | 357 kts | 59° |
| 2026-05-08 03:45 | 45.12980 | -74.58813 | 18351 ft | 355 kts | 57° |
| 2026-05-08 03:45 | 45.14269 | -74.55842 | 17917 ft | 353 kts | 56° |
| 2026-05-08 03:45 | 45.15575 | -74.52905 | 17506 ft | 351 kts | 55° |
| 2026-05-08 03:45 | 45.16876 | -74.49996 | 17122 ft | 349 kts | 55° |
| 2026-05-08 03:46 | 45.18166 | -74.47093 | 16715 ft | 347 kts | 56° |
| 2026-05-08 03:46 | 45.19440 | -74.44203 | 16327 ft | 345 kts | 56° |
| 2026-05-08 03:46 | 45.20713 | -74.41303 | 15969 ft | 354 kts | 56° |
| 2026-05-08 03:46 | 45.22029 | -74.38288 | 15447 ft | 364 kts | 56° |
| 2026-05-08 03:47 | 45.23360 | -74.35217 | 14882 ft | 365 kts | 56° |
| 2026-05-08 03:47 | 45.24684 | -74.32147 | 14367 ft | 365 kts | 56° |
| 2026-05-08 03:47 | 45.26008 | -74.29075 | 13861 ft | 365 kts | 56° |
| 2026-05-08 03:47 | 45.27328 | -74.26006 | 13303 ft | 364 kts | 56° |
| 2026-05-08 03:48 | 45.28648 | -74.22941 | 12779 ft | 362 kts | 56° |
| 2026-05-08 03:48 | 45.29959 | -74.19896 | 12265 ft | 360 kts | 56° |
| 2026-05-08 03:48 | 45.31259 | -74.16866 | 11754 ft | 358 kts | 56° |
| 2026-05-08 03:48 | 45.32548 | -74.13851 | 11249 ft | 356 kts | 56° |
| 2026-05-08 03:49 | 45.33830 | -74.10848 | 10749 ft | 354 kts | 57° |
| 2026-05-08 03:49 | 45.35103 | -74.07867 | 10311 ft | 350 kts | 56° |
| 2026-05-08 03:49 | 45.36505 | -74.05135 | 10178 ft | 334 kts | 44° |
| 2026-05-08 03:49 | 45.38153 | -74.02917 | 10050 ft | 319 kts | 39° |
| 2026-05-08 03:50 | 45.39766 | -74.00833 | 9924 ft | 308 kts | 39° |
| 2026-05-08 03:50 | 45.41299 | -73.98835 | 9753 ft | 299 kts | 39° |
| 2026-05-08 03:50 | 45.42827 | -73.96840 | 9381 ft | 297 kts | 39° |
| 2026-05-08 03:50 | 45.44338 | -73.94871 | 8884 ft | 292 kts | 40° |
| 2026-05-08 03:51 | 45.45824 | -73.92936 | 8284 ft | 287 kts | 40° |
| 2026-05-08 03:51 | 45.47286 | -73.91033 | 7806 ft | 283 kts | 39° |
| 2026-05-08 03:51 | 45.48735 | -73.89153 | 7403 ft | 281 kts | 39° |
| 2026-05-08 03:51 | 45.50170 | -73.87286 | 6994 ft | 279 kts | 39° |
| 2026-05-08 03:52 | 45.51598 | -73.85421 | 6613 ft | 279 kts | 39° |
| 2026-05-08 03:52 | 45.53030 | -73.83552 | 6201 ft | 279 kts | 39° |
| 2026-05-08 03:52 | 45.54453 | -73.81692 | 5904 ft | 275 kts | 39° |
| 2026-05-08 03:52 | 45.55873 | -73.79832 | 5414 ft | 278 kts | 39° |
| 2026-05-08 03:53 | 45.57299 | -73.77966 | 5002 ft | 278 kts | 39° |
| 2026-05-08 03:53 | 45.58262 | -73.76703 | 4729 ft | 278 kts | 39° |
| 2026-05-08 03:53 | 45.59681 | -73.74839 | 4368 ft | 276 kts | 39° |
| 2026-05-08 03:53 | 45.61055 | -73.73028 | 4305 ft | 262 kts | 39° |
| 2026-05-08 03:54 | 45.62344 | -73.71325 | 4214 ft | 250 kts | 39° |
| 2026-05-08 03:54 | 45.63595 | -73.69674 | 4115 ft | 239 kts | 39° |
| 2026-05-08 03:54 | 45.64805 | -73.68074 | 4003 ft | 229 kts | 39° |
| 2026-05-08 03:54 | 45.65944 | -73.66573 | 3948 ft | 224 kts | 38° |
| 2026-05-08 03:55 | 45.67101 | -73.65052 | 3948 ft | 223 kts | 38° |
| 2026-05-08 03:55 | 45.68226 | -73.63575 | 3903 ft | 223 kts | 38° |
| 2026-05-08 03:55 | 45.69370 | -73.62077 | 3835 ft | 223 kts | 38° |
| 2026-05-08 03:55 | 45.70508 | -73.60570 | 3675 ft | 222 kts | 39° |
| 2026-05-08 03:56 | 45.71580 | -73.58970 | 3608 ft | 226 kts | 52° |
| 2026-05-08 03:56 | 45.72119 | -73.56847 | 3517 ft | 232 kts | 82° |
| 2026-05-08 03:56 | 45.71827 | -73.54593 | 3446 ft | 234 kts | 116° |
| 2026-05-08 03:56 | 45.70768 | -73.52874 | 3394 ft | 231 kts | 149° |
| 2026-05-08 03:57 | 45.69276 | -73.52159 | 3333 ft | 225 kts | 180° |
| 2026-05-08 03:57 | 45.67718 | -73.52201 | 3294 ft | 223 kts | 186° |
| 2026-05-08 03:57 | 45.66164 | -73.52278 | 3241 ft | 223 kts | 186° |
| 2026-05-08 03:57 | 45.64613 | -73.52354 | 3185 ft | 223 kts | 186° |
| 2026-05-08 03:58 | 45.63072 | -73.52534 | 3074 ft | 220 kts | 196° |
| 2026-05-08 03:58 | 45.61744 | -73.53281 | 3008 ft | 189 kts | 216° |
| 2026-05-08 03:58 | 45.60790 | -73.54359 | 3006 ft | 166 kts | 228° |
| 2026-05-08 03:58 | 45.59980 | -73.55425 | 3008 ft | 151 kts | 228° |
| 2026-05-08 03:59 | 45.59229 | -73.56419 | 3004 ft | 145 kts | 229° |
| 2026-05-08 03:59 | 45.58497 | -73.57386 | 2981 ft | 142 kts | 229° |
| 2026-05-08 03:59 | 45.57773 | -73.58343 | 2858 ft | 141 kts | 229° |
| 2026-05-08 03:59 | 45.57052 | -73.59294 | 2693 ft | 141 kts | 229° |
| 2026-05-08 04:00 | 45.56335 | -73.60241 | 2512 ft | 140 kts | 229° |
| 2026-05-08 04:00 | 45.55620 | -73.61183 | 2322 ft | 140 kts | 229° |
| 2026-05-08 04:00 | 45.54916 | -73.62111 | 2131 ft | 139 kts | 229° |
| 2026-05-08 04:00 | 45.54198 | -73.63057 | 1934 ft | 138 kts | 229° |
| 2026-05-08 04:01 | 45.53494 | -73.63982 | 1751 ft | 137 kts | 229° |
| 2026-05-08 04:01 | 45.52798 | -73.64899 | 1560 ft | 136 kts | 228° |
| 2026-05-08 04:01 | 45.52099 | -73.65812 | 1377 ft | 136 kts | 227° |
| 2026-05-08 04:01 | 45.51390 | -73.66712 | 1182 ft | 136 kts | 226° |
| 2026-05-08 04:02 | 45.50680 | -73.67614 | 973 ft | 138 kts | 225° |
| 2026-05-08 04:02 | 45.49989 | -73.68570 | 761 ft | 139 kts | 226° |
| 2026-05-08 04:02 | 45.49288 | -73.69539 | 610 ft | 142 kts | 223° |
| 2026-05-08 04:02 | 45.48542 | -73.70466 | 461 ft | 143 kts | 223° |
| 2026-05-08 04:03 | 45.47811 | -73.71440 | 277 ft | 144 kts | 225° |
| 2026-05-08 04:03 | 45.46624 | -73.73016 | 113 ft | 58 kts | 224° |
| 2026-05-08 04:03 | 45.46324 | -73.73422 | 112 ft | 50 kts | 225° |
| 2026-05-08 04:04 | 45.46174 | -73.73616 | 110 ft | 21 kts | 243° |
| 2026-05-08 04:04 | 45.46150 | -73.73818 | 107 ft | 21 kts | 268° |
| 2026-05-08 04:04 | 45.46143 | -73.74015 | 105 ft | 16 kts | 266° |
| 2026-05-08 04:04 | 45.46134 | -73.74175 | 104 ft | 16 kts | 258° |
| 2026-05-08 04:05 | 45.46066 | -73.74298 | 101 ft | 16 kts | 227° |
| 2026-05-08 04:05 | 45.46001 | -73.74418 | 104 ft | 15 kts | 241° |
| 2026-05-08 04:05 | 45.45964 | -73.74547 | 104 ft | 14 kts | 257° |
| 2026-05-08 04:05 | 45.45957 | -73.74674 | 105 ft | 13 kts | 278° |
| 2026-05-08 04:06 | 45.45984 | -73.74790 | 105 ft | 12 kts | 280° |
| 2026-05-08 04:06 | 45.45981 | -73.74887 | 105 ft | 7 kts | 267° |
| 2026-05-08 04:06 | 45.45961 | -73.74900 | 104 ft | 3 kts | 184° |
| 2026-05-08 04:06 | 45.45945 | -73.74900 | 105 ft | 2 kts | 180° |
| 2026-05-08 04:07 | 45.45930 | -73.74900 | 105 ft | 0 kts | 178° |